In Rescue
 
Open Full Screen Window  High Contrast Mode
September 21, 2019 9:00 AM EDT
Weather Information
Wind Direction
  ---
Wind Speed
  00 kt (0 mph)
Wind Gust
  00 kt (0 mph)
Altimeter
30.24 in
Visibility
10 SM
Temperature
20° C
68° F
Dewpoint
18° C
64° F
Humidity
88%
1hr Rain Fall
00.00 in.
24hr Rain Fall
00.00 in.
Sky Condition
Clear
VFR

METAR KPOV 211300Z AUTO 00000KT 10SM CLR 20/18 A3024 RMK AO2 T01990175 PWINO

FAA Disclaimer: The data displayed is for advisory purposes only and is not to be used for flight planning or operations.